Time;durP1;ratioP1;P1;durP2;ratioP2;P2;SDS_P1;SDS_P2;PMS_P1;PMS_P2;Temp;Humidity;BMP_temperature;BMP_pressure;BME280_temperature;BME280_humidity;BME280_pressure;Samples;Min_cycle;Max_cycle;Signal;HPM_P1;HPM_P2
2022/12/22 08:35:00;;;;;;;;;;;;;;;;;;6049369;23;20304;-93
2022/12/22 08:37:28;;;;;;;;;;;;;;;;;;6071295;23;19982;-92
2022/12/22 09:28:56;;;;;;;;;;;;;;;;;;6069748;23;19924;-89
2022/12/22 09:31:22;;;;;;;;;;;;;;;;;;6070634;23;19988;-86
2022/12/22 09:33:48;;;;;;;;;;;;;;;;;;6070228;23;19961;-84
2022/12/22 09:36:16;;;;;;;;;;;;;;;;;;6070211;23;19920;-83
2022/12/22 09:38:41;;;;;;;;;;;;;;;;;;6069730;23;20245;-83
2022/12/22 09:41:15;;;;;;;;;;;;;;;;;;6069654;23;19922;-83
2022/12/22 09:43:41;;;;;;;;;;;;;;;;;;6069185;23;19913;-83
2022/12/22 09:46:17;;;;;;;;;;;;;;;;;;6070020;23;19940;-91
2022/12/22 09:48:42;;;;;;;;;;;;;;;;;;6070554;23;19921;-90
2022/12/22 09:51:10;;;;;;;;;;;;;;;;;;6070597;23;19913;-93
2022/12/22 09:53:36;;;;;;;;;;;;;;;;;;6070122;23;20004;-90
2022/12/22 09:56:01;;;;;;;;;;;;;;;;;;6069925;23;19914;-85
2022/12/22 09:58:26;;;;;;;;;;;;;;;;;;6070049;23;19984;-85
2022/12/22 10:01:07;;;;;;;;;;;;;;;;;;6044268;23;20313;-88
2022/12/22 10:03:33;;;;;;;;;;;;;;;;;;6069696;23;19917;-84
2022/12/22 10:06:01;;;;;;;;;;;;;;;;;;6069906;23;19910;-78
2022/12/22 10:08:28;;;;;;;;;;;;;;;;;;6069916;23;19918;-78
2022/12/22 10:10:54;;;;;;;;;;;;;;;;;;6070713;23;20218;-88
2022/12/22 10:13:19;;;;;;;;;;;;;;;;;;6070777;23;19920;-87
2022/12/22 10:15:45;;;;;;;;;;;;;;;;;;6071347;23;19933;-89
2022/12/22 10:18:12;;;;;;;;;;;;;;;;;;6044482;23;19913;-80
2022/12/22 10:20:38;;;;;;;;;;;;;;;;;;6069665;23;20408;-79
2022/12/22 10:23:13;;;;;;;;;;;;;;;;;;6069720;23;19979;-78
2022/12/22 10:25:41;;;;;;;;;;;;;;;;;;6069981;23;19913;-79
2022/12/22 10:28:12;;;;;;;;;;;;;;;;;;6070604;23;19996;-79
2022/12/22 10:30:39;;;;;;;;;;;;;;;;;;6069577;23;19918;-80
2022/12/22 10:33:06;;;;;;;;;;;;;;;;;;6069650;23;19961;-89
2022/12/22 10:35:50;;;;;;;;;;;;;;;;;;6052087;23;19914;-92
2022/12/22 10:38:29;;;;;;;;;;;;;;;;;;6071008;23;19914;-89
2022/12/22 10:41:01;;;;;;;;;;;;;;;;;;6069982;23;19913;-93
2022/12/22 10:43:27;;;;;;;;;;;;;;;;;;6045560;23;19918;-93
2022/12/22 10:45:53;;;;;;;;;;;;;;;;;;6072398;23;19914;-93
2022/12/22 10:48:26;;;;;;;;;;;;;;;;;;6044987;23;20312;-87
2022/12/22 10:50:51;;;;;;;;;;;;;;;;;;6044924;23;19996;-93
2022/12/22 10:53:17;;;;;;;;;;;;;;;;;;6046749;23;20233;-88
2022/12/22 10:55:43;;;;;;;;;;;;;;;;;;6044762;23;19913;-92
2022/12/22 10:58:08;;;;;;;;;;;;;;;;;;6044694;23;19914;-91
2022/12/22 11:00:34;;;;;;;;;;;;;;;;;;6044700;23;19914;-90
2022/12/22 11:03:00;;;;;;;;;;;;;;;;;;6045554;23;19913;-92
2022/12/22 11:05:26;;;;;;;;;;;;;;;;;;6044738;23;19917;-93
2022/12/22 11:07:52;;;;;;;;;;;;;;;;;;6044653;23;20361;-88
2022/12/22 11:10:19;;;;;;;;;;;;;;;;;;6069840;23;19914;-90
2022/12/22 11:13:02;;;;;;;;;;;;;;;;;;6044615;23;19921;-91
2022/12/22 11:15:27;;;;;;;;;;;;;;;;;;6044687;23;19914;-93
2022/12/22 11:18:11;;;;;;;;;;;;;;;;;;6069574;23;19913;-93
2022/12/22 11:20:45;;;;;;;;;;;;;;;;;;6069543;23;19944;-90
2022/12/22 11:23:10;;;;;;;;;;;;;;;;;;6044464;23;19917;-91
2022/12/22 11:25:56;;;;;;;;;;;;;;;;;;6044960;23;19918;-86
2022/12/22 11:28:27;;;;;;;;;;;;;;;;;;6045642;23;19988;-83
2022/12/22 11:31:01;;;;;;;;;;;;;;;;;;6047101;23;19914;-86
2022/12/22 11:33:33;;;;;;;;;;;;;;;;;;6068975;23;20011;-82
2022/12/22 11:36:03;;;;;;;;;;;;;;;;;;6069735;23;20222;-82
2022/12/22 11:38:40;;;;;;;;;;;;;;;;;;6069217;23;19934;-84
2022/12/22 11:41:08;;;;;;;;;;;;;;;;;;6069280;23;19961;-83
2022/12/22 11:43:53;;;;;;;;;;;;;;;;;;6069100;23;19918;-86
2022/12/22 11:46:24;;;;;;;;;;;;;;;;;;6044277;23;19976;-85
2022/12/22 11:48:56;;;;;;;;;;;;;;;;;;6069479;23;20241;-88
2022/12/22 11:51:27;;;;;;;;;;;;;;;;;;6071569;23;19937;-86
2022/12/22 11:54:22;;;;;;;;;;;;;;;;;;6069132;23;20400;-85
2022/12/22 11:56:50;;;;;;;;;;;;;;;;;;5944670;23;19964;-86
2022/12/22 11:59:46;;;;;;;;;;;;;;;;;;6069430;23;19965;-84
2022/12/22 12:02:21;;;;;;;;;;;;;;;;;;6038709;23;19921;-81
2022/12/22 12:05:02;;;;;;;;;;;;;;;;;;6068971;23;20302;-80
2022/12/22 12:07:30;;;;;;;;;;;;;;;;;;6070867;23;19936;-89
2022/12/22 12:09:55;;;;;;;;;;;;;;;;;;6071495;23;19913;-94
2022/12/22 12:12:32;;;;;;;;;;;;;;;;;;6071757;23;20249;-92
2022/12/22 12:15:24;;;;;;;;;;;;;;;;;;6045889;23;20280;-89
2022/12/22 12:17:58;;;;;;;;;;;;;;;;;;6062742;23;20242;-87
2022/12/22 12:20:27;;;;;;;;;;;;;;;;;;6046099;23;19921;-92
2022/12/22 12:23:11;;;;;;;;;;;;;;;;;;6046271;23;19914;-91
2022/12/22 12:25:36;;;;;;;;;;;;;;;;;;6071880;23;20253;-91
2022/12/22 12:28:09;;;;;;;;;;;;;;;;;;6046117;23;19924;-88
2022/12/22 12:30:40;;;;;;;;;;;;;;;;;;6046040;23;20322;-84
2022/12/22 12:33:13;;;;;;;;;;;;;;;;;;6070686;23;19970;-84
2022/12/22 12:35:51;;;;;;;;;;;;;;;;;;6071115;23;19914;-85
2022/12/22 12:38:33;;;;;;;;;;;;;;;;;;6071014;23;19918;-86
2022/12/22 12:40:58;;;;;;;;;;;;;;;;;;6070989;23;20339;-84
2022/12/22 12:43:24;;;;;;;;;;;;;;;;;;6070902;23;19988;-85
2022/12/22 12:45:50;;;;;;;;;;;;;;;;;;6070820;23;19920;-88
2022/12/22 17:39:19;;;;;;;;;;;;;;;;;;6067928;23;19922;-86
2022/12/22 17:42:19;;;;;;;;;;;;;;;;;;6074378;23;20236;-83
2022/12/22 17:45:09;;;;;;;;;;;;;;;;;;6057459;23;19921;-85
2022/12/22 17:50:42;;;;;;;;;;;;;;;;;;5920940;24;19916;-85
2022/12/22 17:53:12;;;;;;;;;;;;;;;;;;5927056;24;19927;-85
2022/12/22 17:55:38;;;;;;;;;;;;;;;;;;5927179;24;20327;-88
2022/12/22 17:58:03;;;;;;;;;;;;;;;;;;5929432;24;19944;-85
2022/12/22 18:00:29;;;;;;;;;;;;;;;;;;5930000;24;19925;-85
2022/12/22 18:02:55;;;;;;;;;;;;;;;;;;5904772;24;19921;-84
2022/12/22 18:05:22;;;;;;;;;;;;;;;;;;5904617;24;20383;-85
2022/12/22 18:07:48;;;;;;;;;;;;;;;;;;5904576;24;20347;-85
2022/12/22 18:10:22;;;;;;;;;;;;;;;;;;5927591;24;19977;-88
2022/12/22 18:12:48;;;;;;;;;;;;;;;;;;5904740;24;20036;-83
2022/12/22 18:15:17;;;;;;;;;;;;;;;;;;5927455;24;19957;-84
2022/12/22 18:17:43;;;;;;;;;;;;;;;;;;5902985;24;19926;-84
2022/12/22 18:20:11;;;;;;;;;;;;;;;;;;5926646;24;20328;-85
2022/12/22 18:22:37;;;;;;;;;;;;;;;;;;5925350;24;19923;-83
2022/12/22 18:25:08;;;;;;;;;;;;;;;;;;6027354;23;19913;-89
2022/12/22 18:27:33;;;;;;;;;;;;;;;;;;6069576;23;20322;-84
2022/12/22 18:29:59;;;;;;;;;;;;;;;;;;6069557;23;19960;-82
2022/12/22 18:32:24;;;;;;;;;;;;;;;;;;6067831;23;19917;-83
2022/12/22 18:34:49;;;;;;;;;;;;;;;;;;6044188;23;20356;-82
2022/12/22 18:37:16;;;;;;;;;;;;;;;;;;6069530;23;19910;-84
2022/12/22 18:39:44;;;;;;;;;;;;;;;;;;6043525;23;19976;-85
2022/12/22 18:42:18;;;;;;;;;;;;;;;;;;6069480;23;19977;-84
2022/12/22 18:44:44;;;;;;;;;;;;;;;;;;6043704;23;19983;-84
2022/12/22 18:47:10;;;;;;;;;;;;;;;;;;6069654;23;19937;-83
2022/12/22 18:49:35;;;;;;;;;;;;;;;;;;6043781;23;20351;-83
2022/12/22 18:52:01;;;;;;;;;;;;;;;;;;6043727;23;19913;-84
2022/12/22 18:54:32;;;;;;;;;;;;;;;;;;6069261;23;19913;-83
2022/12/22 18:56:57;;;;;;;;;;;;;;;;;;6069218;23;20274;-83
2022/12/22 18:59:24;;;;;;;;;;;;;;;;;;6043587;23;19993;-83
2022/12/22 19:01:50;;;;;;;;;;;;;;;;;;6043588;23;19920;-84
2022/12/22 19:04:15;;;;;;;;;;;;;;;;;;6069441;23;19914;-84
2022/12/22 19:06:40;;;;;;;;;;;;;;;;;;6069050;23;19945;-85
2022/12/22 19:09:15;;;;;;;;;;;;;;;;;;6069091;23;19977;-83
2022/12/22 19:11:40;;;;;;;;;;;;;;;;;;6069271;23;19913;-87
2022/12/22 19:14:13;;;;;;;;;;;;;;;;;;6069054;23;19913;-84
2022/12/22 19:16:38;;;;;;;;;;;;;;;;;;6043180;23;20381;-85
2022/12/22 19:19:04;;;;;;;;;;;;;;;;;;6069041;23;19988;-83
2022/12/22 19:21:29;;;;;;;;;;;;;;;;;;6043630;23;19920;-84
2022/12/22 19:23:54;;;;;;;;;;;;;;;;;;6069346;23;19969;-84
2022/12/22 19:26:21;;;;;;;;;;;;;;;;;;6043431;23;19909;-83
2022/12/22 19:28:48;;;;;;;;;;;;;;;;;;6069442;23;19914;-82
2022/12/22 19:31:19;;;;;;;;;;;;;;;;;;6069384;23;19913;-84
2022/12/22 19:33:44;;;;;;;;;;;;;;;;;;6069651;23;19921;-85
2022/12/22 19:36:17;;;;;;;;;;;;;;;;;;6068950;23;19914;-83
2022/12/22 19:38:48;;;;;;;;;;;;;;;;;;6069057;23;19918;-83
2022/12/22 19:41:26;;;;;;;;;;;;;;;;;;6069323;23;19913;-84
2022/12/22 19:43:51;;;;;;;;;;;;;;;;;;6069011;23;20359;-84
2022/12/22 19:46:16;;;;;;;;;;;;;;;;;;6068832;23;19914;-85
2022/12/22 19:48:42;;;;;;;;;;;;;;;;;;6068975;23;20325;-86
2022/12/22 19:51:08;;;;;;;;;;;;;;;;;;6043608;23;20317;-84
2022/12/22 19:53:33;;;;;;;;;;;;;;;;;;6068821;23;19921;-85
2022/12/22 19:55:58;;;;;;;;;;;;;;;;;;6068810;23;19920;-84
2022/12/22 19:58:25;;;;;;;;;;;;;;;;;;6067629;23;20317;-84
2022/12/22 20:00:50;;;;;;;;;;;;;;;;;;6068467;23;19921;-84
2022/12/22 20:03:19;;;;;;;;;;;;;;;;;;6043288;23;19913;-84
2022/12/22 20:05:45;;;;;;;;;;;;;;;;;;6068961;23;19918;-87
2022/12/22 20:08:10;;;;;;;;;;;;;;;;;;6068680;23;19968;-83
2022/12/22 20:10:36;;;;;;;;;;;;;;;;;;6068926;23;19921;-85
2022/12/22 20:13:03;;;;;;;;;;;;;;;;;;6068702;23;19914;-84
2022/12/22 20:15:32;;;;;;;;;;;;;;;;;;6068954;23;19914;-84
2022/12/22 20:18:19;;;;;;;;;;;;;;;;;;6069976;23;20283;-86
2022/12/22 20:21:08;;;;;;;;;;;;;;;;;;6054140;23;19914;-84
2022/12/22 20:23:35;;;;;;;;;;;;;;;;;;6072411;23;19969;-85
2022/12/22 20:26:03;;;;;;;;;;;;;;;;;;6068777;23;19920;-83
2022/12/22 20:28:30;;;;;;;;;;;;;;;;;;6044380;23;19913;-83
2022/12/22 20:30:56;;;;;;;;;;;;;;;;;;6070476;23;19913;-84
2022/12/22 20:33:23;;;;;;;;;;;;;;;;;;6045039;23;20330;-84
2022/12/22 20:35:49;;;;;;;;;;;;;;;;;;6070579;23;19948;-87
2022/12/22 20:38:26;;;;;;;;;;;;;;;;;;6044974;23;19922;-84
2022/12/22 20:40:52;;;;;;;;;;;;;;;;;;6045085;23;20417;-86
2022/12/22 20:43:19;;;;;;;;;;;;;;;;;;6044978;23;19914;-84
2022/12/22 20:45:46;;;;;;;;;;;;;;;;;;6070477;23;19917;-84
2022/12/22 20:48:20;;;;;;;;;;;;;;;;;;6070365;23;19950;-87
2022/12/22 20:50:45;;;;;;;;;;;;;;;;;;6044919;23;19910;-86
2022/12/22 20:53:14;;;;;;;;;;;;;;;;;;6071466;23;19921;-81
2022/12/22 20:55:40;;;;;;;;;;;;;;;;;;6070389;23;19916;-83
2022/12/22 20:58:10;;;;;;;;;;;;;;;;;;6070886;23;19992;-84
2022/12/22 21:00:35;;;;;;;;;;;;;;;;;;6070561;23;19914;-83
2022/12/22 21:03:01;;;;;;;;;;;;;;;;;;6070326;23;19921;-83
2022/12/22 21:05:26;;;;;;;;;;;;;;;;;;6070347;23;19914;-84
2022/12/22 21:07:51;;;;;;;;;;;;;;;;;;6070198;23;19914;-84
2022/12/22 21:10:17;;;;;;;;;;;;;;;;;;6070536;23;19917;-83
2022/12/22 21:12:43;;;;;;;;;;;;;;;;;;6070008;23;19924;-83
2022/12/22 21:15:14;;;;;;;;;;;;;;;;;;6070709;23;19917;-87
2022/12/22 21:17:40;;;;;;;;;;;;;;;;;;6045632;23;19920;-86
2022/12/22 21:20:10;;;;;;;;;;;;;;;;;;6044780;23;20242;-90
2022/12/22 21:22:35;;;;;;;;;;;;;;;;;;6071176;23;19917;-87
2022/12/22 21:25:01;;;;;;;;;;;;;;;;;;6070889;23;19920;-87
2022/12/22 21:27:29;;;;;;;;;;;;;;;;;;6045410;23;19919;-87
2022/12/22 21:29:55;;;;;;;;;;;;;;;;;;6045666;23;19914;-85
2022/12/22 21:32:21;;;;;;;;;;;;;;;;;;6045719;23;19981;-86
2022/12/22 21:34:46;;;;;;;;;;;;;;;;;;6045364;23;19921;-90
2022/12/22 21:37:14;;;;;;;;;;;;;;;;;;6045758;23;19914;-88
2022/12/22 21:39:43;;;;;;;;;;;;;;;;;;6045118;23;19925;-88
2022/12/22 21:42:16;;;;;;;;;;;;;;;;;;6045530;23;19914;-88
2022/12/22 21:44:41;;;;;;;;;;;;;;;;;;6045793;23;19914;-88
2022/12/22 21:47:09;;;;;;;;;;;;;;;;;;6045387;23;20345;-89
2022/12/22 21:49:34;;;;;;;;;;;;;;;;;;6045837;23;19913;-90
2022/12/22 21:52:00;;;;;;;;;;;;;;;;;;6045659;23;19962;-89
2022/12/22 21:54:25;;;;;;;;;;;;;;;;;;6044901;23;20245;-89
2022/12/22 21:56:51;;;;;;;;;;;;;;;;;;6045247;23;20345;-88
2022/12/22 21:59:16;;;;;;;;;;;;;;;;;;6046974;23;19914;-88
2022/12/22 22:01:43;;;;;;;;;;;;;;;;;;6069691;23;19960;-88
2022/12/22 22:04:09;;;;;;;;;;;;;;;;;;6069942;23;19917;-88
2022/12/22 22:06:34;;;;;;;;;;;;;;;;;;6044349;23;19914;-89
2022/12/22 22:08:59;;;;;;;;;;;;;;;;;;6044375;23;19941;-88
2022/12/22 22:11:25;;;;;;;;;;;;;;;;;;6044315;23;19933;-89
2022/12/22 22:13:51;;;;;;;;;;;;;;;;;;6070319;23;19914;-89
2022/12/22 22:16:16;;;;;;;;;;;;;;;;;;6069942;23;19992;-88
2022/12/22 22:18:43;;;;;;;;;;;;;;;;;;6070647;23;19914;-88
2022/12/22 22:21:09;;;;;;;;;;;;;;;;;;6045567;23;19914;-89
2022/12/22 22:23:35;;;;;;;;;;;;;;;;;;6050075;23;19945;-88
2022/12/22 22:26:00;;;;;;;;;;;;;;;;;;6044297;23;19920;-88
2022/12/22 22:28:26;;;;;;;;;;;;;;;;;;6044485;23;19989;-88
2022/12/22 22:30:51;;;;;;;;;;;;;;;;;;6044599;23;19993;-89
2022/12/22 22:33:17;;;;;;;;;;;;;;;;;;6069993;23;19914;-87
2022/12/22 22:35:42;;;;;;;;;;;;;;;;;;6044850;23;20374;-86
